createdAt,value
2022-11-30T00:01:57.948Z,98650.28
2022-11-30T00:04:02.782Z,98652.88
2022-11-30T00:06:08.926Z,98657.06
2022-11-30T00:08:13.688Z,98652.63
2022-11-30T00:10:19.116Z,98656.09
2022-11-30T00:12:23.935Z,98641.59
2022-11-30T00:14:31.341Z,98638.38
2022-11-30T00:16:36.183Z,98644.50
2022-11-30T00:18:41.043Z,98641.97
2022-11-30T00:20:45.821Z,98648.03
2022-11-30T00:22:50.702Z,98638.59
2022-11-30T00:24:55.457Z,98641.19
2022-11-30T00:27:00.247Z,98638.59
2022-11-30T00:29:05.021Z,98642.09
2022-11-30T00:31:15.644Z,98646.38
2022-11-30T00:33:20.461Z,98636.16
2022-11-30T00:35:25.247Z,98642.22
2022-11-30T00:37:30.020Z,98639.66
2022-11-30T00:39:35.729Z,98652.75
2022-11-30T00:41:40.689Z,98655.41
2022-11-30T00:43:48.028Z,98658.81
2022-11-30T00:45:52.803Z,98659.75
2022-11-30T00:48:00.245Z,98662.25
2022-11-30T00:50:05.204Z,98662.31
2022-11-30T00:52:10.029Z,98662.38
2022-11-30T00:54:14.805Z,98668.28
2022-11-30T00:56:19.674Z,98670.84
2022-11-30T00:58:25.748Z,98667.50
2022-11-30T01:00:31.372Z,98657.09
2022-11-30T01:02:36.220Z,98658.00
2022-11-30T01:04:43.720Z,98665.88
2022-11-30T01:06:48.722Z,98665.09
2022-11-30T01:08:53.571Z,98665.16
2022-11-30T01:10:58.511Z,98666.88
2022-11-30T01:13:03.402Z,98666.03
2022-11-30T01:15:08.814Z,98669.47
2022-11-30T01:17:13.607Z,98671.22
2022-11-30T01:19:18.484Z,98675.59
2022-11-30T01:21:27.917Z,98689.41
2022-11-30T01:23:32.675Z,98686.81
2022-11-30T01:25:37.470Z,98692.94
2022-11-30T01:27:42.192Z,98689.50
2022-11-30T01:29:47.045Z,98688.66
2022-11-30T01:31:51.814Z,98686.13
2022-11-30T01:33:58.376Z,98684.28
2022-11-30T01:36:04.553Z,98686.09
2022-11-30T01:38:12.037Z,98678.28
2022-11-30T01:40:17.034Z,98677.44
2022-11-30T01:42:23.134Z,98675.75
2022-11-30T01:44:42.640Z,98676.75
2022-11-30T01:46:53.865Z,98681.97
2022-11-30T01:49:06.266Z,98691.47
2022-11-30T01:51:11.110Z,98684.66
2022-11-30T01:53:18.540Z,98690.72
2022-11-30T01:55:27.038Z,98682.09
2022-11-30T01:57:41.032Z,98684.69
2022-11-30T01:59:45.957Z,98691.63
2022-11-30T02:01:54.420Z,98687.31
2022-11-30T02:04:04.962Z,98684.78
2022-11-30T02:06:10.905Z,98691.59
2022-11-30T02:08:18.804Z,98687.19
2022-11-30T02:10:28.338Z,98682.94
2022-11-30T02:12:43.092Z,98689.78
2022-11-30T02:14:52.297Z,98688.78
2022-11-30T02:17:04.633Z,98683.50
2022-11-30T02:19:29.238Z,98682.59
2022-11-30T02:21:43.354Z,98691.19
2022-11-30T02:24:14.660Z,98683.53
2022-11-30T02:26:41.255Z,98688.78
2022-11-30T02:29:07.422Z,98695.63
2022-11-30T02:31:17.868Z,98695.69
2022-11-30T02:33:27.208Z,98694.88
2022-11-30T02:35:35.868Z,98699.25
2022-11-30T02:37:42.299Z,98691.47
2022-11-30T02:39:47.520Z,98698.28
2022-11-30T02:41:52.058Z,98702.50
2022-11-30T02:44:01.250Z,98698.09
2022-11-30T02:46:14.265Z,98691.19
2022-11-30T02:48:23.837Z,98688.66
2022-11-30T02:50:33.909Z,98692.94
2022-11-30T02:52:38.851Z,98690.28
2022-11-30T02:54:43.796Z,98690.97
2022-11-30T02:56:48.822Z,98687.53
2022-11-30T02:58:53.624Z,98697.88
2022-11-30T03:01:01.168Z,98694.44
2022-11-30T03:03:06.037Z,98696.19
2022-11-30T03:05:11.867Z,98696.13
2022-11-30T03:07:16.816Z,98687.47
2022-11-30T03:09:21.631Z,98690.00
2022-11-30T03:11:26.370Z,98693.41
2022-11-30T03:13:31.272Z,98691.63
2022-11-30T03:15:36.127Z,98693.41
2022-11-30T03:17:43.530Z,98700.19
2022-11-30T03:19:48.465Z,98688.97
2022-11-30T03:21:53.277Z,98694.97
2022-11-30T03:23:58.116Z,98702.00
2022-11-30T03:26:02.946Z,98699.44
2022-11-30T03:28:07.964Z,98695.28
2022-11-30T03:30:14.011Z,98697.16
2022-11-30T03:32:18.837Z,98696.31
2022-11-30T03:34:27.734Z,98704.06
2022-11-30T03:36:32.501Z,98706.63
2022-11-30T03:38:37.510Z,98702.44
2022-11-30T03:40:42.495Z,98699.91
2022-11-30T03:42:47.371Z,98697.31
2022-11-30T03:44:52.137Z,98711.13
2022-11-30T03:46:56.979Z,98700.84
2022-11-30T03:49:01.754Z,98696.63
2022-11-30T03:51:09.296Z,98700.97
2022-11-30T03:53:14.069Z,98694.88
2022-11-30T03:55:19.121Z,98708.66
2022-11-30T03:57:24.030Z,98706.09
2022-11-30T03:59:28.855Z,98698.31
2022-11-30T04:01:33.698Z,98705.19
2022-11-30T04:03:39.193Z,98710.34
2022-11-30T04:05:45.511Z,98712.03
2022-11-30T04:07:52.947Z,98706.81
2022-11-30T04:09:57.828Z,98703.28
2022-11-30T04:12:02.632Z,98699.84
2022-11-30T04:14:07.469Z,98701.53
2022-11-30T04:16:12.653Z,98706.69
2022-11-30T04:18:17.532Z,98705.81
2022-11-30T04:20:22.335Z,98704.16
2022-11-30T04:22:27.232Z,98708.50
2022-11-30T04:24:34.612Z,98707.59
2022-11-30T04:26:39.687Z,98702.53
2022-11-30T04:28:44.822Z,98700.81
2022-11-30T04:30:50.695Z,98702.59
2022-11-30T04:32:55.509Z,98710.41
2022-11-30T04:35:00.377Z,98709.53
2022-11-30T04:37:05.149Z,98715.47
2022-11-30T04:39:09.911Z,98716.38
2022-11-30T04:41:17.728Z,98714.63
2022-11-30T04:43:23.227Z,98710.41
2022-11-30T04:45:32.488Z,98715.56
2022-11-30T04:47:40.021Z,98708.78
2022-11-30T04:49:44.760Z,98711.31
2022-11-30T04:51:49.603Z,98710.34
2022-11-30T04:53:54.571Z,98707.72
2022-11-30T04:55:59.437Z,98703.50
2022-11-30T04:58:06.823Z,98701.94
2022-11-30T05:00:14.091Z,98706.19
2022-11-30T05:02:18.986Z,98704.50
2022-11-30T05:04:23.839Z,98706.25
2022-11-30T05:06:28.766Z,98710.50
2022-11-30T05:08:33.782Z,98717.31
2022-11-30T05:10:38.673Z,98716.56
2022-11-30T05:12:43.578Z,98716.53
2022-11-30T05:14:50.984Z,98721.81
2022-11-30T05:16:55.816Z,98724.44
2022-11-30T05:19:00.647Z,98728.72
2022-11-30T05:21:05.840Z,98722.75
2022-11-30T05:23:10.431Z,98724.44
2022-11-30T05:25:15.223Z,98732.19
2022-11-30T05:27:22.657Z,98723.66
2022-11-30T05:29:27.708Z,98723.63
2022-11-30T05:31:35.348Z,98723.75
2022-11-30T05:33:40.215Z,98723.72
2022-11-30T05:35:46.093Z,98723.75
2022-11-30T05:37:50.862Z,98728.03
2022-11-30T05:39:55.632Z,98717.81
2022-11-30T05:42:00.497Z,98721.25
2022-11-30T05:44:05.320Z,98728.97
2022-11-30T05:46:12.233Z,98724.81
2022-11-30T05:48:19.754Z,98730.91
2022-11-30T05:50:24.682Z,98736.94
2022-11-30T05:52:29.487Z,98728.38
2022-11-30T05:54:34.344Z,98732.66
2022-11-30T05:56:39.133Z,98735.28
2022-11-30T05:58:45.233Z,98740.50
2022-11-30T06:00:50.433Z,98730.25
2022-11-30T06:02:59.066Z,98734.53
2022-11-30T06:05:06.724Z,98737.13
2022-11-30T06:07:12.240Z,98746.59
2022-11-30T06:09:17.052Z,98743.94
2022-11-30T06:11:21.827Z,98743.84
2022-11-30T06:13:28.995Z,98738.63
2022-11-30T06:15:33.871Z,98743.69
2022-11-30T06:17:38.940Z,98747.91
2022-11-30T06:19:43.833Z,98747.81
2022-11-30T06:21:54.545Z,98746.03
2022-11-30T06:24:00.087Z,98741.75
2022-11-30T06:26:07.637Z,98734.06
2022-11-30T06:28:13.815Z,98747.81
2022-11-30T06:30:18.894Z,98743.59
2022-11-30T06:32:23.714Z,98743.63
2022-11-30T06:34:28.545Z,98739.38
2022-11-30T06:36:36.243Z,98742.84
2022-11-30T06:38:43.828Z,98746.28
2022-11-30T06:40:48.911Z,98752.28
2022-11-30T06:42:53.752Z,98750.59
2022-11-30T06:44:58.605Z,98746.22
2022-11-30T06:47:03.474Z,98735.09
2022-11-30T06:49:08.372Z,98741.97
2022-11-30T06:51:13.304Z,98748.84
2022-11-30T06:53:18.064Z,98736.78
2022-11-30T06:55:25.476Z,98741.91
2022-11-30T06:57:31.002Z,98744.53
2022-11-30T06:59:36.979Z,98741.09
2022-11-30T07:01:41.801Z,98737.66
2022-11-30T07:03:46.769Z,98735.94
2022-11-30T07:05:51.587Z,98747.06
2022-11-30T07:07:56.430Z,98749.72
2022-11-30T07:10:01.608Z,98755.00
2022-11-30T07:12:09.300Z,98754.22
2022-11-30T07:14:14.052Z,98760.31
2022-11-30T07:16:19.031Z,98763.84
2022-11-30T07:18:28.482Z,98767.22
2022-11-30T07:20:36.703Z,98770.69
2022-11-30T07:22:41.509Z,98768.91
2022-11-30T07:24:58.755Z,98765.44
2022-11-30T07:27:05.435Z,98770.63
2022-11-30T07:29:12.956Z,98765.38
2022-11-30T07:31:20.746Z,98760.22
2022-11-30T07:33:25.611Z,98755.91
2022-11-30T07:35:30.510Z,98771.38
2022-11-30T07:37:35.331Z,98762.72
2022-11-30T07:39:40.158Z,98770.38
2022-11-30T07:41:48.337Z,98762.63
2022-11-30T07:43:56.142Z,98765.25
2022-11-30T07:46:04.326Z,98771.31
2022-11-30T07:48:09.923Z,98771.25
2022-11-30T07:50:14.961Z,98772.91
2022-11-30T07:52:19.759Z,98772.84
2022-11-30T07:54:24.572Z,98771.94
2022-11-30T07:56:30.530Z,98771.91
2022-11-30T07:58:35.718Z,98765.84
2022-11-30T08:00:41.549Z,98764.09
2022-11-30T08:02:52.999Z,98760.56
2022-11-30T08:04:58.851Z,98769.13
2022-11-30T08:07:03.798Z,98762.22
2022-11-30T08:09:08.780Z,98776.06
2022-11-30T08:11:15.155Z,98772.69
2022-11-30T08:13:19.903Z,98768.38
2022-11-30T08:15:31.822Z,98770.06
2022-11-30T08:17:37.444Z,98766.75
2022-11-30T08:19:44.810Z,98759.94
2022-11-30T08:21:49.568Z,98766.00
2022-11-30T08:23:56.940Z,98772.75
2022-11-30T08:26:08.170Z,98772.75
2022-11-30T08:28:12.991Z,98774.38
2022-11-30T08:30:18.294Z,98775.97
2022-11-30T08:32:23.202Z,98775.22
2022-11-30T08:34:28.307Z,98780.44
2022-11-30T08:36:35.913Z,98780.41
2022-11-30T08:38:42.127Z,98782.88
2022-11-30T08:40:47.015Z,98790.69
2022-11-30T08:42:51.805Z,98790.84
2022-11-30T08:44:56.655Z,98794.28
2022-11-30T08:47:01.475Z,98798.59
2022-11-30T08:49:21.054Z,98799.53
2022-11-30T08:51:27.157Z,98804.78
2022-11-30T08:53:34.614Z,98803.81
2022-11-30T08:55:39.493Z,98805.47
2022-11-30T08:57:46.571Z,98802.88
2022-11-30T08:59:53.944Z,98802.91
2022-11-30T09:01:58.725Z,98815.63
2022-11-30T09:04:03.509Z,98815.69
2022-11-30T09:06:09.400Z,98812.38
2022-11-30T09:08:14.213Z,98819.28
2022-11-30T09:10:21.749Z,98821.00
2022-11-30T09:12:26.648Z,98826.22
2022-11-30T09:14:31.784Z,98829.78
2022-11-30T09:16:36.519Z,98820.34
2022-11-30T09:18:42.270Z,98836.81
2022-11-30T09:20:47.019Z,98839.47
2022-11-30T09:22:52.599Z,98842.03
2022-11-30T09:24:57.591Z,98845.44
2022-11-30T09:27:05.038Z,98836.69
2022-11-30T09:29:09.916Z,98834.88
2022-11-30T09:31:17.437Z,98826.34
2022-11-30T09:33:23.382Z,98825.56
2022-11-30T09:35:28.292Z,98818.72
2022-11-30T09:37:33.105Z,98828.22
2022-11-30T09:39:37.946Z,98820.47
2022-11-30T09:42:09.705Z,98829.19
2022-11-30T09:44:26.204Z,98827.53
2022-11-30T09:46:36.588Z,98824.09
2022-11-30T09:48:58.829Z,98819.00
2022-11-30T09:51:11.714Z,98816.50
2022-11-30T09:53:29.141Z,98815.56
2022-11-30T09:55:39.386Z,98831.00
2022-11-30T09:57:48.849Z,98826.78
2022-11-30T09:59:59.786Z,98822.53
2022-11-30T10:02:16.522Z,98817.56
2022-11-30T10:04:25.765Z,98814.13
2022-11-30T10:06:36.470Z,98816.81
2022-11-30T10:08:53.100Z,98816.69
2022-11-30T10:11:18.565Z,98817.44
2022-11-30T10:13:39.357Z,98817.38
2022-11-30T10:15:57.041Z,98813.78
2022-11-30T10:18:13.717Z,98808.50
2022-11-30T10:20:43.988Z,98810.94
2022-11-30T10:23:05.465Z,98810.84
2022-11-30T10:25:19.649Z,98805.66
2022-11-30T10:27:39.037Z,98810.03
2022-11-30T10:29:48.139Z,98808.44
2022-11-30T10:32:02.077Z,98796.41
2022-11-30T10:34:21.222Z,98809.25
2022-11-30T10:36:32.375Z,98806.59
2022-11-30T10:38:42.605Z,98798.13
2022-11-30T10:40:53.905Z,98805.91
2022-11-30T10:43:07.532Z,98810.31
2022-11-30T10:45:15.223Z,98811.16
2022-11-30T10:47:27.006Z,98794.75
2022-11-30T10:49:34.734Z,98795.53
2022-11-30T10:51:43.873Z,98791.09
2022-11-30T10:53:51.722Z,98795.50
2022-11-30T10:56:03.140Z,98792.09
2022-11-30T10:58:15.846Z,98783.56
2022-11-30T11:00:21.305Z,98786.31
2022-11-30T11:02:45.950Z,98793.28
2022-11-30T11:04:50.787Z,98794.94
2022-11-30T11:06:58.635Z,98792.38
2022-11-30T11:09:38.286Z,98793.09
2022-11-30T11:11:43.354Z,98783.50
2022-11-30T11:13:48.223Z,98785.91
2022-11-30T11:16:00.983Z,98791.78
2022-11-30T11:18:29.034Z,98785.78
2022-11-30T11:20:39.058Z,98783.25
2022-11-30T11:22:46.961Z,98780.72
2022-11-30T11:24:53.361Z,98782.44
2022-11-30T11:26:59.250Z,98779.09
2022-11-30T11:29:04.079Z,98780.88
2022-11-30T11:31:20.955Z,98780.88
2022-11-30T11:33:29.797Z,98782.63
2022-11-30T11:35:38.284Z,98786.84
2022-11-30T11:37:53.577Z,98785.97
2022-11-30T11:40:08.381Z,98788.41
2022-11-30T11:42:22.588Z,98790.00
2022-11-30T11:44:30.188Z,98783.03
2022-11-30T11:46:37.459Z,98779.66
2022-11-30T11:48:54.035Z,98774.47
2022-11-30T11:51:08.098Z,98766.06
2022-11-30T11:53:28.076Z,98780.66
2022-11-30T11:55:33.084Z,98782.53
2022-11-30T11:57:46.815Z,98785.97
2022-11-30T11:59:57.554Z,98796.16
2022-11-30T12:02:07.847Z,98791.78
2022-11-30T12:04:37.988Z,98793.53
2022-11-30T12:06:44.702Z,98784.13
2022-11-30T12:08:53.745Z,98791.00
2022-11-30T12:11:04.951Z,98786.66
2022-11-30T12:13:16.985Z,98792.63
2022-11-30T12:15:21.843Z,98786.84
2022-11-30T12:17:39.979Z,98788.63
2022-11-30T12:19:57.884Z,98790.41
2022-11-30T12:22:10.289Z,98788.75
2022-11-30T12:24:32.502Z,98787.84
2022-11-30T12:26:44.025Z,98790.31
2022-11-30T12:29:09.000Z,98786.84
2022-11-30T12:31:18.012Z,98776.75
2022-11-30T12:33:32.402Z,98777.63
2022-11-30T12:35:48.669Z,98778.41
2022-11-30T12:38:02.578Z,98771.53
2022-11-30T12:40:24.111Z,98779.28
2022-11-30T12:42:38.402Z,98773.25
2022-11-30T12:44:56.119Z,98781.06
2022-11-30T12:47:10.226Z,98784.53
2022-11-30T12:49:30.657Z,98787.88
2022-11-30T12:51:46.892Z,98787.06
2022-11-30T12:53:58.574Z,98791.56
2022-11-30T12:56:15.820Z,98789.09
2022-11-30T12:58:28.486Z,98787.31
2022-11-30T13:00:42.578Z,98784.75
2022-11-30T13:03:03.481Z,98785.66
2022-11-30T13:05:13.682Z,98785.72
2022-11-30T13:07:30.621Z,98784.91
2022-11-30T13:09:40.706Z,98784.00
2022-11-30T13:11:49.035Z,98784.84
2022-11-30T13:13:57.869Z,98781.38
2022-11-30T13:16:06.106Z,98783.13
2022-11-30T13:18:18.818Z,98776.22
2022-11-30T13:20:28.501Z,98774.47
2022-11-30T13:22:48.057Z,98776.97
2022-11-30T13:25:01.994Z,98772.63
2022-11-30T13:27:16.782Z,98767.34
2022-11-30T13:29:51.978Z,98772.63
2022-11-30T13:32:05.449Z,98777.81
2022-11-30T13:34:26.208Z,98783.72
2022-11-30T13:36:38.920Z,98779.31
2022-11-30T13:38:46.486Z,98779.19
2022-11-30T13:41:00.279Z,98773.19
2022-11-30T13:43:05.122Z,98776.56
2022-11-30T13:45:28.604Z,98774.00
2022-11-30T13:47:35.790Z,98773.19
2022-11-30T13:49:40.689Z,98773.31
2022-11-30T13:51:45.765Z,98772.59
2022-11-30T13:54:28.553Z,98780.41
2022-11-30T13:56:37.990Z,98783.94
2022-11-30T13:59:17.531Z,98781.44
2022-11-30T14:01:28.693Z,98784.97
2022-11-30T14:03:34.557Z,98787.56
2022-11-30T14:05:42.368Z,98786.66
2022-11-30T14:07:48.402Z,98783.19
2022-11-30T14:10:25.893Z,98794.38
2022-11-30T14:12:48.573Z,98783.31
2022-11-30T14:14:53.375Z,98793.69
2022-11-30T14:17:00.458Z,98794.56
2022-11-30T14:19:09.142Z,98789.28
2022-11-30T14:21:27.739Z,98801.28
2022-11-30T14:23:42.210Z,98796.06
2022-11-30T14:25:52.523Z,98796.03
2022-11-30T14:28:00.566Z,98795.19
2022-11-30T14:30:07.194Z,98796.00
2022-11-30T14:32:16.286Z,98794.25
2022-11-30T14:34:24.869Z,98796.84
2022-11-30T14:36:37.252Z,98791.69
2022-11-30T14:38:46.830Z,98798.53
2022-11-30T14:40:59.053Z,98796.84
2022-11-30T14:43:08.908Z,98793.41
2022-11-30T14:45:21.996Z,98798.50
2022-11-30T14:47:31.648Z,98807.03
2022-11-30T14:49:36.388Z,98798.41
2022-11-30T14:51:41.735Z,98794.94
2022-11-30T14:53:54.397Z,98798.38
2022-11-30T14:56:03.943Z,98799.25
2022-11-30T14:58:20.843Z,98797.66
2022-11-30T15:00:26.262Z,98795.03
2022-11-30T15:02:39.211Z,98799.22
2022-11-30T15:04:46.635Z,98798.41
2022-11-30T15:06:56.171Z,98800.09
2022-11-30T15:09:03.144Z,98802.72
2022-11-30T15:11:10.241Z,98801.00
2022-11-30T15:13:20.155Z,98798.50
2022-11-30T15:15:27.884Z,98806.28
2022-11-30T15:17:32.771Z,98798.56
2022-11-30T15:19:37.736Z,98803.69
2022-11-30T15:21:51.675Z,98800.22
2022-11-30T15:23:58.735Z,98795.09
2022-11-30T15:26:07.486Z,98804.63
2022-11-30T15:28:14.638Z,98799.53
2022-11-30T15:30:22.344Z,98803.78
2022-11-30T15:32:28.234Z,98809.78
2022-11-30T15:34:40.154Z,98813.25
2022-11-30T15:36:45.519Z,98818.50
2022-11-30T15:38:53.002Z,98820.19
2022-11-30T15:41:05.627Z,98818.53
2022-11-30T15:43:22.710Z,98827.13
2022-11-30T15:45:31.794Z,98832.31
2022-11-30T15:47:39.717Z,98839.13
2022-11-30T15:49:54.351Z,98833.88
2022-11-30T15:52:05.448Z,98829.56
2022-11-30T15:54:10.628Z,98833.88
2022-11-30T15:56:24.921Z,98838.38
2022-11-30T15:58:33.326Z,98835.84
2022-11-30T16:00:40.724Z,98838.50
2022-11-30T16:02:46.692Z,98844.50
2022-11-30T16:05:24.578Z,98842.03
2022-11-30T16:07:32.962Z,98837.75
2022-11-30T16:09:38.803Z,98844.63
2022-11-30T16:11:43.723Z,98842.06
2022-11-30T16:13:49.527Z,98847.19
2022-11-30T16:15:59.682Z,98846.28
2022-11-30T16:18:19.047Z,98841.09
2022-11-30T16:20:24.853Z,98849.69
2022-11-30T16:22:29.637Z,98845.31
2022-11-30T16:24:34.668Z,98839.31
2022-11-30T16:26:54.856Z,98835.03
2022-11-30T16:28:59.706Z,98835.09
2022-11-30T16:31:18.042Z,98836.84
2022-11-30T16:33:29.986Z,98835.19
2022-11-30T16:35:52.037Z,98840.44
2022-11-30T16:38:06.719Z,98843.91
2022-11-30T16:40:17.054Z,98855.03
2022-11-30T16:42:25.088Z,98843.88
2022-11-30T16:44:30.936Z,98847.31
2022-11-30T16:46:39.417Z,98850.75
2022-11-30T16:48:44.897Z,98861.91
2022-11-30T16:50:49.863Z,98862.69
2022-11-30T16:52:55.017Z,98860.16
2022-11-30T16:54:59.588Z,98858.44
2022-11-30T16:57:04.372Z,98856.69
2022-11-30T16:59:14.973Z,98851.47
2022-11-30T17:01:34.553Z,98854.88
2022-11-30T17:03:43.341Z,98853.19
2022-11-30T17:05:48.629Z,98859.16
2022-11-30T17:07:53.643Z,98860.94
2022-11-30T17:09:58.703Z,98862.66
2022-11-30T17:12:04.355Z,98857.50
2022-11-30T17:14:09.630Z,98864.38
2022-11-30T17:16:14.921Z,98860.03
2022-11-30T17:18:19.493Z,98862.59
2022-11-30T17:20:30.497Z,98862.63
2022-11-30T17:22:37.743Z,98865.22
2022-11-30T17:24:42.546Z,98858.31
2022-11-30T17:26:47.368Z,98866.03
2022-11-30T17:28:52.256Z,98872.97
2022-11-30T17:30:57.097Z,98867.81
2022-11-30T17:33:01.965Z,98866.16
2022-11-30T17:35:07.521Z,98874.69
2022-11-30T17:37:15.081Z,98876.34
2022-11-30T17:39:20.180Z,98866.81
2022-11-30T17:41:25.388Z,98873.66
2022-11-30T17:43:29.871Z,98874.59
2022-11-30T17:45:34.913Z,98878.09
2022-11-30T17:47:40.012Z,98881.56
2022-11-30T17:49:46.576Z,98888.41
2022-11-30T17:51:53.299Z,98884.97
2022-11-30T17:54:00.669Z,98883.22
2022-11-30T17:56:06.061Z,98885.91
2022-11-30T17:58:10.945Z,98881.66
2022-11-30T18:00:16.832Z,98883.38
2022-11-30T18:02:21.713Z,98894.63
2022-11-30T18:04:26.721Z,98887.78
2022-11-30T18:06:31.623Z,98883.63
2022-11-30T18:08:37.975Z,98895.66
2022-11-30T18:10:48.124Z,98896.50
2022-11-30T18:12:53.015Z,98895.59
2022-11-30T18:14:57.835Z,98895.72
2022-11-30T18:17:02.649Z,98900.84
2022-11-30T18:19:12.480Z,98901.69
2022-11-30T18:21:19.406Z,98908.53
2022-11-30T18:23:24.183Z,98906.78
2022-11-30T18:25:28.955Z,98909.34
2022-11-30T18:27:36.339Z,98908.53
2022-11-30T18:29:41.196Z,98913.69
2022-11-30T18:31:48.526Z,98918.00
2022-11-30T18:33:59.021Z,98906.78
2022-11-30T18:36:06.368Z,98911.16
2022-11-30T18:38:11.257Z,98910.34
2022-11-30T18:40:16.685Z,98918.06
2022-11-30T18:42:22.690Z,98914.66
2022-11-30T18:44:30.193Z,98912.94
2022-11-30T18:46:35.178Z,98919.88
2022-11-30T18:48:41.361Z,98926.75
2022-11-30T18:50:46.169Z,98915.56
2022-11-30T18:52:50.935Z,98914.69
2022-11-30T18:54:55.699Z,98916.34
2022-11-30T18:57:01.705Z,98918.09
2022-11-30T18:59:08.656Z,98918.13
2022-11-30T19:01:18.299Z,98926.75
2022-11-30T19:03:23.113Z,98925.00
2022-11-30T19:05:39.823Z,98919.81
2022-11-30T19:07:44.725Z,98927.50
2022-11-30T19:09:52.791Z,98921.44
2022-11-30T19:11:58.227Z,98923.13
2022-11-30T19:14:03.442Z,98910.19
2022-11-30T19:16:10.746Z,98924.78
2022-11-30T19:18:22.917Z,98918.75
2022-11-30T19:20:28.053Z,98918.81
2022-11-30T19:22:32.887Z,98924.81
2022-11-30T19:24:37.645Z,98924.81
2022-11-30T19:26:42.508Z,98927.41
2022-11-30T19:28:48.459Z,98922.28
2022-11-30T19:30:53.356Z,98925.75
2022-11-30T19:32:58.222Z,98930.06
2022-11-30T19:35:05.826Z,98926.69
2022-11-30T19:37:10.597Z,98934.38
2022-11-30T19:39:15.392Z,98939.56
2022-11-30T19:41:21.571Z,98938.78
2022-11-30T19:43:26.641Z,98940.50
2022-11-30T19:45:31.423Z,98937.03
2022-11-30T19:47:37.422Z,98931.88
2022-11-30T19:49:45.945Z,98932.72
2022-11-30T19:51:53.380Z,98938.75
2022-11-30T19:53:58.223Z,98934.41
2022-11-30T19:56:07.228Z,98933.59
2022-11-30T19:58:11.987Z,98936.19
2022-11-30T20:00:17.875Z,98936.19
2022-11-30T20:02:22.676Z,98936.22
2022-11-30T20:04:27.619Z,98940.50
2022-11-30T20:06:34.774Z,98943.94
2022-11-30T20:08:43.103Z,98942.25
2022-11-30T20:10:49.123Z,98940.50
2022-11-30T20:12:53.981Z,98943.91
2022-11-30T20:14:58.733Z,98939.56
2022-11-30T20:17:03.516Z,98936.97
2022-11-30T20:19:08.388Z,98936.94
2022-11-30T20:21:15.074Z,98926.66
2022-11-30T20:23:19.846Z,98923.25
2022-11-30T20:25:28.214Z,98924.06
2022-11-30T20:27:33.270Z,98925.75
2022-11-30T20:29:38.159Z,98931.75
2022-11-30T20:31:43.487Z,98926.66
2022-11-30T20:33:48.770Z,98935.22
2022-11-30T20:35:53.286Z,98926.56
2022-11-30T20:37:58.088Z,98928.25
2022-11-30T20:40:02.887Z,98927.41
2022-11-30T20:42:10.330Z,98924.81
2022-11-30T20:44:17.859Z,98923.13
2022-11-30T20:46:24.026Z,98922.25
2022-11-30T20:48:29.199Z,98929.97
2022-11-30T20:50:33.976Z,98925.66
2022-11-30T20:52:38.743Z,98937.72
2022-11-30T20:54:43.528Z,98928.28
2022-11-30T20:56:51.188Z,98928.25
2022-11-30T20:58:58.904Z,98920.53
2022-11-30T21:01:04.445Z,98926.53
2022-11-30T21:03:09.336Z,98923.09
2022-11-30T21:05:15.138Z,98928.28
2022-11-30T21:07:19.972Z,98923.97
2022-11-30T21:09:24.903Z,98923.91
2022-11-30T21:11:31.303Z,98929.03
2022-11-30T21:13:36.725Z,98923.91
2022-11-30T21:15:45.611Z,98925.56
2022-11-30T21:17:50.483Z,98925.59
2022-11-30T21:19:55.283Z,98926.47
2022-11-30T21:22:00.094Z,98928.97
2022-11-30T21:24:06.844Z,98927.31
2022-11-30T21:26:17.866Z,98925.56
2022-11-30T21:28:22.839Z,98931.69
2022-11-30T21:30:27.590Z,98929.09
2022-11-30T21:32:35.157Z,98928.25
2022-11-30T21:34:39.997Z,98932.56
2022-11-30T21:36:44.872Z,98934.34
2022-11-30T21:38:49.700Z,98934.31
2022-11-30T21:40:59.142Z,98934.31
2022-11-30T21:43:04.028Z,98934.31
2022-11-30T21:45:09.833Z,98929.13
2022-11-30T21:47:14.911Z,98928.28
2022-11-30T21:49:23.731Z,98929.19
2022-11-30T21:51:30.283Z,98921.44
2022-11-30T21:53:37.937Z,98927.47
2022-11-30T21:55:42.695Z,98929.19
2022-11-30T21:57:47.639Z,98938.66
2022-11-30T21:59:52.428Z,98942.03
2022-11-30T22:01:57.252Z,98927.41
2022-11-30T22:04:04.042Z,98932.50
2022-11-30T22:06:13.516Z,98923.91
2022-11-30T22:08:18.284Z,98931.63
2022-11-30T22:10:23.070Z,98926.44
2022-11-30T22:12:28.178Z,98925.69
2022-11-30T22:14:33.178Z,98930.78
2022-11-30T22:16:37.971Z,98935.94
2022-11-30T22:18:45.523Z,98933.38
2022-11-30T22:20:52.816Z,98927.38
2022-11-30T22:23:00.308Z,98931.63
2022-11-30T22:25:05.065Z,98929.94
2022-11-30T22:27:09.889Z,98925.59
2022-11-30T22:29:16.225Z,98924.72
2022-11-30T22:31:22.977Z,98932.44
2022-11-30T22:33:27.883Z,98929.00
2022-11-30T22:35:32.685Z,98925.59
2022-11-30T22:37:37.451Z,98922.94
2022-11-30T22:39:44.881Z,98929.75
2022-11-30T22:41:55.817Z,98920.34
2022-11-30T22:44:01.909Z,98924.69
2022-11-30T22:46:10.907Z,98925.53
2022-11-30T22:48:15.803Z,98925.53
2022-11-30T22:50:20.671Z,98923.81
2022-11-30T22:52:48.169Z,98925.56
2022-11-30T22:54:53.088Z,98928.09
2022-11-30T22:56:58.074Z,98930.72
2022-11-30T22:59:03.812Z,98929.84
2022-11-30T23:01:13.796Z,98926.38
2022-11-30T23:03:18.687Z,98921.25
2022-11-30T23:05:23.564Z,98921.25
2022-11-30T23:07:32.022Z,98915.22
2022-11-30T23:09:37.165Z,98919.56
2022-11-30T23:11:44.911Z,98911.81
2022-11-30T23:13:49.973Z,98909.19
2022-11-30T23:15:59.231Z,98913.50
2022-11-30T23:18:04.512Z,98909.16
2022-11-30T23:20:09.873Z,98900.66
2022-11-30T23:22:14.656Z,98909.25
2022-11-30T23:24:23.937Z,98908.44
2022-11-30T23:26:30.503Z,98906.66
2022-11-30T23:28:39.878Z,98899.81
2022-11-30T23:30:44.654Z,98898.00
2022-11-30T23:32:49.485Z,98901.50
2022-11-30T23:34:55.626Z,98895.47
2022-11-30T23:37:00.366Z,98891.94
2022-11-30T23:39:07.258Z,98885.13
2022-11-30T23:41:14.240Z,98879.03
2022-11-30T23:43:19.161Z,98881.59
2022-11-30T23:45:26.519Z,98873.94
2022-11-30T23:47:31.295Z,98873.97
2022-11-30T23:49:36.458Z,98873.13
2022-11-30T23:51:41.071Z,98879.16
2022-11-30T23:53:45.946Z,98887.78
2022-11-30T23:55:50.973Z,98876.63
2022-11-30T23:57:55.783Z,98884.34
